createdAt,value
2018-08-07T00:00:41.749Z,4.17
2018-08-07T00:03:09.405Z,4.30
2018-08-07T00:05:37.168Z,3.57
2018-08-07T00:08:06.092Z,4.13
2018-08-07T00:10:33.596Z,4.27
2018-08-07T00:13:01.106Z,3.60
2018-08-07T00:15:28.697Z,4.23
2018-08-07T00:17:56.352Z,4.27
2018-08-07T00:20:23.945Z,3.73
2018-08-07T00:22:51.548Z,4.10
2018-08-07T00:25:19.069Z,3.93
2018-08-07T00:27:46.654Z,4.00
2018-08-07T00:30:15.511Z,4.00
2018-08-07T00:32:43.126Z,4.40
2018-08-07T00:35:14.632Z,4.10
2018-08-07T00:37:42.186Z,4.27
2018-08-07T00:40:12.294Z,4.60
2018-08-07T00:42:40.245Z,4.03
2018-08-07T00:45:09.986Z,4.20
2018-08-07T00:47:37.590Z,4.37
2018-08-07T00:50:08.279Z,4.00
2018-08-07T00:52:35.912Z,4.23
2018-08-07T00:55:04.236Z,4.10
2018-08-07T00:57:31.737Z,4.30
2018-08-07T00:59:59.332Z,4.00
2018-08-07T01:02:26.969Z,4.10
2018-08-07T01:04:54.444Z,4.30
2018-08-07T01:07:22.120Z,3.80
2018-08-07T01:09:49.704Z,4.53
2018-08-07T01:12:17.322Z,4.33
2018-08-07T01:14:44.930Z,4.07
2018-08-07T01:17:12.536Z,4.07
2018-08-07T01:19:40.078Z,4.30
2018-08-07T01:22:07.748Z,3.80
2018-08-07T01:24:35.353Z,3.73
2018-08-07T01:27:03.030Z,4.00
2018-08-07T01:29:30.569Z,4.90
2018-08-07T01:31:58.344Z,4.23
2018-08-07T01:34:25.848Z,4.17
2018-08-07T01:36:53.468Z,4.90
2018-08-07T01:39:21.013Z,4.10
2018-08-07T01:41:48.546Z,4.73
2018-08-07T01:44:16.160Z,4.53
2018-08-07T01:46:43.701Z,3.97
2018-08-07T01:49:11.272Z,4.13
2018-08-07T01:51:38.948Z,4.50
2018-08-07T01:54:06.532Z,4.90
2018-08-07T01:56:34.096Z,4.60
2018-08-07T01:59:01.679Z,4.90
2018-08-07T02:01:29.379Z,5.77
2018-08-07T02:03:56.952Z,4.40
2018-08-07T02:06:24.481Z,4.53
2018-08-07T02:08:52.093Z,4.97
2018-08-07T02:11:19.600Z,4.37
2018-08-07T02:13:47.112Z,4.47
2018-08-07T02:16:14.611Z,4.20
2018-08-07T02:18:42.084Z,4.30
2018-08-07T02:21:09.764Z,4.90
2018-08-07T02:23:37.353Z,4.00
2018-08-07T02:26:05.115Z,4.47
2018-08-07T02:28:32.780Z,4.30
2018-08-07T02:31:00.358Z,4.20
2018-08-07T02:33:27.921Z,4.97
2018-08-07T02:35:55.545Z,3.60
2018-08-07T02:38:23.143Z,4.60
2018-08-07T02:40:50.692Z,4.80
2018-08-07T02:43:18.253Z,3.93
2018-08-07T02:45:45.738Z,3.47
2018-08-07T02:48:13.290Z,3.40
2018-08-07T02:50:40.813Z,4.30
2018-08-07T02:53:08.419Z,4.50
2018-08-07T02:55:35.907Z,3.73
2018-08-07T02:58:03.919Z,3.77
2018-08-07T03:00:35.329Z,3.80
2018-08-07T03:03:02.961Z,4.03
2018-08-07T03:05:30.520Z,3.70
2018-08-07T03:07:58.233Z,3.07
2018-08-07T03:10:25.846Z,3.33
2018-08-07T03:12:53.584Z,3.53
2018-08-07T03:15:21.536Z,4.30
2018-08-07T03:17:49.674Z,3.53
2018-08-07T03:20:17.772Z,3.87
2018-08-07T03:22:45.648Z,3.63
2018-08-07T03:25:13.882Z,3.30
2018-08-07T03:27:42.372Z,4.17
2018-08-07T03:30:12.372Z,3.83
2018-08-07T03:32:39.957Z,3.20
2018-08-07T03:35:07.543Z,3.90
2018-08-07T03:37:35.579Z,4.10
2018-08-07T03:40:04.448Z,3.50
2018-08-07T03:42:32.082Z,3.10
2018-08-07T03:44:59.590Z,3.90
2018-08-07T03:47:27.169Z,3.50
2018-08-07T03:49:54.660Z,3.40
2018-08-07T03:52:22.229Z,3.23
2018-08-07T03:54:49.922Z,3.20
2018-08-07T03:57:17.470Z,3.50
2018-08-07T03:59:45.061Z,3.33
2018-08-07T04:02:12.600Z,2.90
2018-08-07T04:04:40.158Z,3.40
2018-08-07T04:07:07.697Z,3.67
2018-08-07T04:09:35.193Z,3.07
2018-08-07T04:12:02.749Z,3.70
2018-08-07T04:14:30.257Z,2.83
2018-08-07T04:16:57.994Z,3.30
2018-08-07T04:19:27.100Z,3.30
2018-08-07T04:21:55.690Z,2.93
2018-08-07T04:24:23.574Z,3.10
2018-08-07T04:26:51.163Z,6.57
2018-08-07T04:29:18.748Z,11.03
2018-08-07T04:31:46.604Z,14.70
2018-08-07T04:34:19.156Z,10.73
2018-08-07T04:36:47.088Z,6.30
2018-08-07T04:39:14.642Z,4.10
2018-08-07T04:41:42.421Z,4.73
2018-08-07T04:44:10.251Z,3.93
2018-08-07T04:46:37.927Z,3.67
2018-08-07T04:49:05.747Z,3.87
2018-08-07T04:51:33.474Z,3.70
2018-08-07T04:54:01.162Z,3.17
2018-08-07T04:56:29.041Z,2.80
2018-08-07T04:58:56.622Z,3.07
2018-08-07T05:01:24.333Z,4.23
2018-08-07T05:03:51.919Z,3.17
2018-08-07T05:06:19.554Z,3.53
2018-08-07T05:08:47.437Z,3.43
2018-08-07T05:11:15.214Z,3.80
2018-08-07T05:13:46.493Z,3.57
2018-08-07T05:16:14.147Z,3.33
2018-08-07T05:18:41.671Z,3.03
2018-08-07T05:21:09.341Z,3.53
2018-08-07T05:23:37.155Z,3.90
2018-08-07T05:26:04.942Z,3.43
2018-08-07T05:28:32.645Z,3.20
2018-08-07T05:31:00.881Z,3.80
2018-08-07T05:33:28.502Z,3.77
2018-08-07T05:35:56.439Z,3.30
2018-08-07T05:38:24.252Z,3.63
2018-08-07T05:40:51.844Z,3.53
2018-08-07T05:43:19.456Z,3.57
2018-08-07T05:45:47.102Z,3.03
2018-08-07T05:48:14.690Z,3.07
2018-08-07T05:50:43.030Z,3.00
2018-08-07T05:53:10.335Z,4.30
2018-08-07T05:55:37.937Z,2.87
2018-08-07T05:58:12.239Z,3.50
2018-08-07T06:00:40.073Z,3.57
2018-08-07T06:03:07.721Z,3.23
2018-08-07T06:05:35.568Z,2.87
2018-08-07T06:08:03.110Z,3.20
2018-08-07T06:10:30.681Z,3.60
2018-08-07T06:12:58.335Z,2.83
2018-08-07T06:15:25.958Z,3.20
2018-08-07T06:17:53.633Z,3.30
2018-08-07T06:20:21.280Z,2.80
2018-08-07T06:22:48.876Z,2.93
2018-08-07T06:25:16.500Z,3.40
2018-08-07T06:27:44.052Z,2.97
2018-08-07T06:30:17.240Z,2.70
2018-08-07T06:32:45.569Z,3.73
2018-08-07T06:35:13.226Z,2.77
2018-08-07T06:37:40.825Z,2.37
2018-08-07T06:40:10.290Z,2.70
2018-08-07T06:42:38.030Z,3.13
2018-08-07T06:45:06.518Z,2.90
2018-08-07T06:47:34.249Z,2.97
2018-08-07T06:50:01.879Z,2.73
2018-08-07T06:52:29.444Z,2.70
2018-08-07T06:54:57.152Z,3.03
2018-08-07T06:57:24.746Z,3.20
2018-08-07T06:59:52.260Z,2.90
2018-08-07T07:02:19.976Z,2.60
2018-08-07T07:04:47.453Z,2.97
2018-08-07T07:07:14.926Z,2.43
2018-08-07T07:09:42.571Z,4.50
2018-08-07T07:12:10.193Z,2.87
2018-08-07T07:14:37.820Z,2.97
2018-08-07T07:17:05.408Z,2.90
2018-08-07T07:19:32.903Z,2.27
2018-08-07T07:22:00.408Z,2.40
2018-08-07T07:24:27.936Z,2.60
2018-08-07T07:26:55.577Z,3.00
2018-08-07T07:29:23.051Z,2.60
2018-08-07T07:31:50.589Z,3.30
2018-08-07T07:34:18.176Z,3.20
2018-08-07T07:36:45.809Z,2.60
2018-08-07T07:39:13.380Z,2.27
2018-08-07T07:41:41.043Z,2.60
2018-08-07T07:44:08.667Z,2.43
2018-08-07T07:46:36.283Z,2.13
2018-08-07T07:49:03.854Z,2.00
2018-08-07T07:51:31.420Z,2.70
2018-08-07T07:53:59.412Z,2.50
2018-08-07T07:56:27.040Z,2.30
2018-08-07T07:58:54.602Z,2.20
2018-08-07T08:01:22.240Z,2.80
2018-08-07T08:03:49.734Z,2.80
2018-08-07T08:06:17.135Z,2.40
2018-08-07T08:08:44.881Z,2.80
2018-08-07T08:11:12.469Z,2.67
2018-08-07T08:13:40.045Z,2.30
2018-08-07T08:16:07.715Z,2.60
2018-08-07T08:18:35.287Z,2.00
2018-08-07T08:21:02.905Z,2.60
2018-08-07T08:23:30.398Z,2.57
2018-08-07T08:25:57.864Z,2.40
2018-08-07T08:28:25.511Z,2.37
2018-08-07T08:30:53.127Z,2.53
2018-08-07T08:33:20.718Z,2.60
2018-08-07T08:35:48.298Z,2.70
2018-08-07T08:38:15.680Z,2.00
2018-08-07T08:40:43.213Z,2.50
2018-08-07T08:43:10.840Z,2.10
2018-08-07T08:45:38.238Z,3.00
2018-08-07T08:48:06.564Z,2.00
2018-08-07T08:50:34.032Z,2.33
2018-08-07T08:53:01.624Z,2.37
2018-08-07T08:55:29.481Z,2.57
2018-08-07T08:57:57.162Z,2.70
2018-08-07T09:00:29.829Z,2.87
2018-08-07T09:02:59.945Z,2.60
2018-08-07T09:05:27.500Z,2.20
2018-08-07T09:07:55.024Z,2.10
2018-08-07T09:10:27.247Z,1.97
2018-08-07T09:12:55.389Z,2.50
2018-08-07T09:15:22.948Z,2.50
2018-08-07T09:17:50.524Z,4.00
2018-08-07T09:20:20.851Z,2.60
2018-08-07T09:22:48.456Z,3.70
2018-08-07T09:25:16.283Z,2.13
2018-08-07T09:27:44.037Z,2.53
2018-08-07T09:30:16.577Z,2.10
2018-08-07T09:32:45.420Z,2.30
2018-08-07T09:35:13.752Z,2.43
2018-08-07T09:37:48.053Z,2.47
2018-08-07T09:40:16.860Z,2.60
2018-08-07T09:42:45.757Z,2.10
2018-08-07T09:45:17.207Z,2.17
2018-08-07T09:47:45.483Z,2.10
2018-08-07T09:50:13.541Z,2.20
2018-08-07T09:52:41.117Z,2.17
2018-08-07T09:55:09.076Z,2.07
2018-08-07T09:57:36.804Z,2.20
2018-08-07T10:00:10.914Z,2.53
2018-08-07T10:02:44.581Z,1.90
2018-08-07T10:05:12.258Z,1.63
2018-08-07T10:07:39.791Z,1.60
2018-08-07T10:10:07.452Z,2.40
2018-08-07T10:12:35.120Z,2.13
2018-08-07T10:15:02.777Z,2.17
2018-08-07T10:17:30.458Z,2.70
2018-08-07T10:19:58.012Z,2.60
2018-08-07T10:22:25.645Z,2.23
2018-08-07T10:24:53.184Z,2.93
2018-08-07T10:27:20.801Z,2.80
2018-08-07T10:29:48.495Z,2.50
2018-08-07T10:32:16.181Z,2.53
2018-08-07T10:34:43.723Z,2.50
2018-08-07T10:37:11.685Z,2.63
2018-08-07T10:39:39.258Z,2.90
2018-08-07T10:42:07.928Z,2.90
2018-08-07T10:44:35.558Z,2.93
2018-08-07T10:47:03.243Z,2.63
2018-08-07T10:49:30.735Z,2.63
2018-08-07T10:51:58.332Z,3.20
2018-08-07T10:54:25.936Z,2.70
2018-08-07T10:56:53.555Z,2.60
2018-08-07T10:59:20.988Z,2.87
2018-08-07T11:01:48.556Z,3.00
2018-08-07T11:04:16.102Z,3.07
2018-08-07T11:06:44.330Z,2.93
2018-08-07T11:09:11.845Z,2.80
2018-08-07T11:11:39.485Z,3.00
2018-08-07T11:14:06.988Z,2.73
2018-08-07T11:16:34.969Z,3.00
2018-08-07T11:19:02.564Z,3.17
2018-08-07T11:21:30.182Z,3.10
2018-08-07T11:23:57.762Z,2.90
2018-08-07T11:26:25.365Z,2.80
2018-08-07T11:28:52.986Z,2.60
2018-08-07T11:31:20.671Z,2.70
2018-08-07T11:33:54.529Z,2.90
2018-08-07T11:36:22.109Z,3.00
2018-08-07T11:38:50.216Z,3.07
2018-08-07T11:41:17.900Z,2.57
2018-08-07T11:43:45.677Z,2.77
2018-08-07T11:46:13.213Z,2.20
2018-08-07T11:48:40.843Z,2.73
2018-08-07T11:51:16.736Z,3.07
2018-08-07T11:53:44.584Z,2.93
2018-08-07T11:56:12.211Z,3.40
2018-08-07T11:58:43.169Z,3.20
2018-08-07T12:01:13.545Z,3.30
2018-08-07T12:03:41.724Z,2.87
2018-08-07T12:06:09.440Z,3.63
2018-08-07T12:08:37.378Z,3.07
2018-08-07T12:11:05.524Z,3.47
2018-08-07T12:13:43.638Z,2.97
2018-08-07T12:16:11.698Z,3.30
2018-08-07T12:18:39.396Z,3.07
2018-08-07T12:21:07.030Z,3.40
2018-08-07T12:24:10.912Z,3.10
2018-08-07T12:26:39.229Z,2.80
2018-08-07T12:29:06.858Z,3.17
2018-08-07T12:31:35.299Z,3.50
2018-08-07T12:34:03.221Z,3.40
2018-08-07T12:36:30.921Z,3.10
2018-08-07T12:38:58.982Z,3.67
2018-08-07T12:41:26.603Z,3.40
2018-08-07T12:43:54.498Z,3.30
2018-08-07T12:46:22.233Z,3.10
2018-08-07T12:48:49.976Z,3.10
2018-08-07T12:51:17.659Z,3.50
2018-08-07T12:53:45.545Z,3.10
2018-08-07T12:56:13.178Z,3.33
2018-08-07T12:58:40.916Z,3.10
2018-08-07T13:01:08.733Z,3.37
2018-08-07T13:03:36.362Z,3.67
2018-08-07T13:06:04.115Z,4.50
2018-08-07T13:08:31.775Z,3.33
2018-08-07T13:10:59.324Z,3.60
2018-08-07T13:13:26.950Z,3.60
2018-08-07T13:15:54.557Z,3.73
2018-08-07T13:18:22.355Z,3.67
2018-08-07T13:20:50.701Z,4.07
2018-08-07T13:23:18.371Z,3.57
2018-08-07T13:25:45.955Z,3.73
2018-08-07T13:28:13.532Z,4.67
2018-08-07T13:30:41.181Z,3.80
2018-08-07T13:33:08.859Z,3.73
2018-08-07T13:35:36.419Z,3.93
2018-08-07T13:38:03.999Z,4.07
2018-08-07T13:40:31.566Z,3.53
2018-08-07T13:42:59.207Z,3.60
2018-08-07T13:45:26.864Z,3.90
2018-08-07T13:47:54.401Z,3.17
2018-08-07T13:50:23.284Z,3.77
2018-08-07T13:52:51.498Z,3.63
2018-08-07T13:55:20.223Z,3.67
2018-08-07T13:57:47.947Z,3.17
2018-08-07T14:00:18.980Z,3.97
2018-08-07T14:02:47.267Z,3.93
2018-08-07T14:05:15.841Z,3.90
2018-08-07T14:07:43.861Z,3.60
2018-08-07T14:10:12.995Z,3.10
2018-08-07T14:12:40.945Z,3.00
2018-08-07T14:15:09.581Z,3.67
2018-08-07T14:17:38.104Z,3.83
2018-08-07T14:20:07.754Z,3.87
2018-08-07T14:22:35.475Z,3.77
2018-08-07T14:25:05.304Z,3.70
2018-08-07T14:27:33.255Z,3.63
2018-08-07T14:30:01.089Z,3.80
2018-08-07T14:32:28.934Z,3.77
2018-08-07T14:34:57.013Z,3.80
2018-08-07T14:37:24.919Z,3.80
2018-08-07T14:39:52.713Z,3.97
2018-08-07T14:42:20.677Z,4.13
2018-08-07T14:44:48.713Z,4.10
2018-08-07T14:47:16.420Z,3.63
2018-08-07T14:49:44.251Z,3.60
2018-08-07T14:52:12.204Z,3.90
2018-08-07T14:54:40.013Z,3.40
2018-08-07T14:57:07.856Z,3.70
2018-08-07T14:59:35.668Z,3.63
2018-08-07T15:02:03.602Z,3.90
2018-08-07T15:04:31.475Z,3.30
2018-08-07T15:06:59.479Z,3.63
2018-08-07T15:09:27.326Z,3.70
2018-08-07T15:11:55.156Z,4.00
2018-08-07T15:14:22.993Z,3.60
2018-08-07T15:16:50.906Z,3.30
2018-08-07T15:19:19.268Z,3.60
2018-08-07T15:21:47.015Z,3.17
2018-08-07T15:24:14.691Z,3.50
2018-08-07T15:26:42.419Z,3.80
2018-08-07T15:29:10.294Z,3.50
2018-08-07T15:31:38.052Z,3.43
2018-08-07T15:34:05.738Z,3.37
2018-08-07T15:36:33.347Z,3.70
2018-08-07T15:39:00.929Z,3.60
2018-08-07T15:41:28.614Z,3.80
2018-08-07T15:43:56.242Z,3.30
2018-08-07T15:46:23.921Z,3.60
2018-08-07T15:48:52.067Z,3.63
2018-08-07T15:51:19.802Z,3.40
2018-08-07T15:53:47.305Z,3.50
2018-08-07T15:56:14.880Z,3.20
2018-08-07T15:58:42.510Z,3.70
2018-08-07T16:01:10.139Z,3.33
2018-08-07T16:03:37.973Z,3.50
2018-08-07T16:06:05.542Z,3.80
2018-08-07T16:08:33.081Z,3.77
2018-08-07T16:11:00.791Z,3.77
2018-08-07T16:13:28.441Z,3.60
2018-08-07T16:15:55.984Z,3.00
2018-08-07T16:18:23.511Z,3.63
2018-08-07T16:20:51.206Z,3.77
2018-08-07T16:23:18.774Z,3.33
2018-08-07T16:25:46.372Z,3.03
2018-08-07T16:28:13.902Z,3.47
2018-08-07T16:30:41.581Z,3.50
2018-08-07T16:33:09.302Z,3.30
2018-08-07T16:35:36.922Z,3.20
2018-08-07T16:38:04.491Z,3.00
2018-08-07T16:40:32.028Z,3.50
2018-08-07T16:42:59.793Z,3.00
2018-08-07T16:45:27.438Z,3.30
2018-08-07T16:47:55.034Z,4.90
2018-08-07T16:50:27.775Z,3.83
2018-08-07T16:52:56.223Z,3.20
2018-08-07T16:55:25.635Z,3.60
2018-08-07T16:57:53.194Z,3.50
2018-08-07T17:00:20.885Z,3.63
2018-08-07T17:02:48.512Z,3.93
2018-08-07T17:05:16.755Z,3.17
2018-08-07T17:07:46.840Z,3.73
2018-08-07T17:10:18.893Z,3.47
2018-08-07T17:12:47.772Z,4.00
2018-08-07T17:15:17.819Z,3.97
2018-08-07T17:17:45.705Z,3.70
2018-08-07T17:22:21.679Z,3.67
2018-08-07T17:24:49.950Z,3.40
2018-08-07T17:27:17.766Z,4.07
2018-08-07T17:29:45.273Z,3.53
2018-08-07T17:32:12.802Z,3.97
2018-08-07T17:34:40.394Z,4.17
2018-08-07T17:37:07.995Z,4.30
2018-08-07T17:42:09.929Z,3.90
2018-08-07T17:44:37.518Z,3.80
2018-08-07T17:47:05.254Z,3.83
2018-08-07T17:49:32.913Z,3.67
2018-08-07T17:52:00.554Z,4.17
2018-08-07T17:54:28.802Z,3.00
2018-08-07T17:57:00.379Z,3.87
2018-08-07T17:59:28.203Z,3.83
2018-08-07T18:01:55.729Z,3.80
2018-08-07T18:04:24.909Z,3.57
2018-08-07T18:06:52.519Z,5.17
2018-08-07T18:09:20.117Z,4.60
2018-08-07T18:11:47.999Z,5.00
2018-08-07T18:14:15.655Z,8.17
2018-08-07T18:16:43.184Z,7.13
2018-08-07T18:19:10.735Z,4.83
2018-08-07T18:21:38.456Z,11.40
2018-08-07T18:24:05.988Z,6.23
2018-08-07T18:26:33.521Z,7.67
2018-08-07T18:29:01.115Z,7.40
2018-08-07T18:31:28.835Z,6.10
2018-08-07T18:33:56.816Z,7.67
2018-08-07T18:36:24.583Z,15.83
2018-08-07T18:38:52.308Z,29.20
2018-08-07T18:41:19.999Z,21.50
2018-08-07T18:43:47.737Z,20.33
2018-08-07T18:46:15.845Z,12.87
2018-08-07T18:48:43.924Z,13.30
2018-08-07T18:51:12.144Z,13.27
2018-08-07T18:53:40.040Z,10.57
2018-08-07T18:56:10.975Z,8.20
2018-08-07T18:58:41.954Z,7.33
2018-08-07T19:01:16.151Z,6.63
2018-08-07T19:03:45.166Z,6.53
2018-08-07T19:06:15.237Z,6.80
2018-08-07T19:08:44.448Z,7.00
2018-08-07T19:11:12.514Z,6.97
2018-08-07T19:13:42.476Z,7.60
2018-08-07T19:16:12.207Z,10.37
2018-08-07T19:18:42.008Z,9.63
2018-08-07T19:21:12.645Z,9.70
2018-08-07T19:23:45.322Z,18.47
2018-08-07T19:26:24.126Z,40.60
2018-08-07T19:29:07.472Z,20.70
2018-08-07T19:31:45.547Z,17.67
2018-08-07T19:34:13.781Z,14.73
2018-08-07T19:36:41.840Z,12.70
2018-08-07T19:39:12.389Z,11.00
2018-08-07T19:41:55.048Z,9.13
2018-08-07T19:44:25.042Z,9.97
2018-08-07T19:46:54.564Z,9.10
2018-08-07T19:49:37.973Z,9.70
2018-08-07T19:52:09.490Z,8.80
2018-08-07T19:54:37.453Z,9.17
2018-08-07T19:57:08.255Z,21.30
2018-08-07T19:59:37.268Z,68.33
2018-08-07T20:02:05.624Z,20.90
2018-08-07T20:04:34.299Z,14.73
2018-08-07T20:07:01.978Z,12.50
2018-08-07T20:09:29.702Z,15.20
2018-08-07T20:11:57.609Z,15.80
2018-08-07T20:14:25.233Z,14.37
2018-08-07T20:16:52.842Z,12.23
2018-08-07T20:19:21.508Z,13.90
2018-08-07T20:21:51.052Z,26.00
2018-08-07T20:24:22.017Z,25.57
2018-08-07T20:26:54.149Z,10.47
2018-08-07T20:29:31.187Z,12.40
2018-08-07T20:32:01.298Z,13.53
2018-08-07T20:34:30.492Z,11.33
2018-08-07T20:37:11.193Z,10.60
2018-08-07T20:39:39.388Z,10.27
2018-08-07T20:42:07.026Z,9.00
2018-08-07T20:44:34.665Z,10.60
2018-08-07T20:47:02.200Z,10.53
2018-08-07T20:49:29.778Z,9.83
2018-08-07T20:51:57.508Z,9.73
2018-08-07T20:54:25.258Z,9.13
2018-08-07T20:56:52.851Z,8.97
2018-08-07T20:59:20.533Z,8.60
2018-08-07T21:01:48.254Z,9.40
2018-08-07T21:04:15.807Z,10.97
2018-08-07T21:06:43.570Z,9.23
2018-08-07T21:09:11.541Z,9.37
2018-08-07T21:11:39.062Z,8.80
2018-08-07T21:14:06.701Z,9.93
2018-08-07T21:16:34.419Z,9.90
2018-08-07T21:19:02.094Z,10.80
2018-08-07T21:21:29.917Z,11.20
2018-08-07T21:23:57.545Z,11.07
2018-08-07T21:26:25.415Z,10.53
2018-08-07T21:28:53.884Z,10.67
2018-08-07T21:31:21.981Z,9.93
2018-08-07T21:33:49.949Z,9.63
2018-08-07T21:36:17.856Z,10.07
2018-08-07T21:38:45.804Z,9.87
2018-08-07T21:41:13.937Z,9.60
2018-08-07T21:43:41.830Z,9.40
2018-08-07T21:46:09.918Z,8.07
2018-08-07T21:48:37.911Z,8.00
2018-08-07T21:51:06.048Z,8.00
2018-08-07T21:53:33.941Z,7.33
2018-08-07T21:56:02.312Z,7.27
2018-08-07T21:58:30.252Z,6.70
2018-08-07T22:00:58.385Z,7.20
2018-08-07T22:03:26.435Z,7.27
2018-08-07T22:05:54.444Z,7.00
2018-08-07T22:08:22.552Z,7.40
2018-08-07T22:10:50.568Z,7.40
2018-08-07T22:13:18.827Z,7.23
2018-08-07T22:15:46.799Z,9.40
2018-08-07T22:18:14.674Z,7.37
2018-08-07T22:20:42.581Z,7.10
2018-08-07T22:23:10.157Z,6.93
2018-08-07T22:25:37.797Z,7.60
2018-08-07T22:28:05.867Z,7.70
2018-08-07T22:30:33.442Z,7.17
2018-08-07T22:33:00.992Z,7.17
2018-08-07T22:35:28.515Z,7.50
2018-08-07T22:37:56.342Z,7.80
2018-08-07T22:40:24.181Z,6.93
2018-08-07T22:42:51.844Z,7.30
2018-08-07T22:45:19.516Z,7.07
2018-08-07T22:47:47.141Z,7.50
2018-08-07T22:50:16.055Z,7.30
2018-08-07T22:52:44.227Z,7.23
2018-08-07T22:55:13.401Z,7.20
2018-08-07T22:57:40.960Z,6.50
2018-08-07T23:00:11.912Z,6.53
2018-08-07T23:02:39.474Z,6.00
2018-08-07T23:05:07.587Z,6.57
2018-08-07T23:07:35.408Z,6.80
2018-08-07T23:10:03.263Z,6.20
2018-08-07T23:12:30.905Z,6.53
2018-08-07T23:14:58.507Z,6.77
2018-08-07T23:20:00.421Z,6.20
2018-08-07T23:22:28.000Z,6.20
2018-08-07T23:24:55.813Z,6.33
2018-08-07T23:27:23.381Z,5.93
2018-08-07T23:29:50.985Z,6.50
2018-08-07T23:32:18.527Z,6.20
2018-08-07T23:34:46.129Z,6.67
2018-08-07T23:37:13.836Z,6.40
2018-08-07T23:39:41.543Z,6.60
2018-08-07T23:42:09.121Z,5.90
2018-08-07T23:44:36.694Z,6.00
2018-08-07T23:47:04.323Z,6.77
2018-08-07T23:49:31.865Z,6.53
2018-08-07T23:51:59.555Z,7.63
2018-08-07T23:54:27.102Z,7.70
2018-08-07T23:56:54.733Z,6.67
2018-08-07T23:59:22.445Z,6.70
